createdAt,value
2024-02-19T00:02:14.452Z,2.10
2024-02-19T00:04:41.890Z,2.10
2024-02-19T00:07:09.763Z,2.00
2024-02-19T00:09:37.301Z,2.00
2024-02-19T00:12:05.476Z,2.00
2024-02-19T00:14:32.906Z,1.90
2024-02-19T00:17:00.682Z,1.90
2024-02-19T00:19:28.235Z,1.90
2024-02-19T00:21:56.090Z,1.90
2024-02-19T00:24:23.596Z,1.90
2024-02-19T00:26:51.260Z,1.90
2024-02-19T00:29:18.595Z,1.90
2024-02-19T00:31:46.417Z,1.90
2024-02-19T00:34:13.841Z,1.90
2024-02-19T00:36:42.478Z,1.80
2024-02-19T00:39:09.843Z,1.80
2024-02-19T00:41:38.326Z,1.90
2024-02-19T00:44:05.887Z,1.90
2024-02-19T00:46:33.606Z,2.00
2024-02-19T00:49:01.191Z,1.90
2024-02-19T00:51:28.980Z,1.90
2024-02-19T00:53:56.600Z,1.70
2024-02-19T00:56:24.285Z,1.70
2024-02-19T00:58:51.767Z,1.70
2024-02-19T01:01:19.712Z,1.70
2024-02-19T01:03:47.167Z,1.80
2024-02-19T01:06:15.091Z,1.80
2024-02-19T01:08:43.592Z,1.70
2024-02-19T01:11:12.226Z,1.80
2024-02-19T01:13:41.064Z,1.90
2024-02-19T01:16:10.915Z,1.80
2024-02-19T01:18:38.585Z,1.80
2024-02-19T01:21:06.455Z,1.90
2024-02-19T01:23:33.912Z,1.90
2024-02-19T01:26:01.561Z,1.90
2024-02-19T01:28:28.972Z,1.90
2024-02-19T01:30:57.133Z,1.80
2024-02-19T01:33:24.595Z,1.90
2024-02-19T01:35:52.385Z,1.90
2024-02-19T01:38:19.773Z,1.90
2024-02-19T01:40:47.676Z,1.90
2024-02-19T01:43:17.163Z,1.80
2024-02-19T01:45:45.087Z,1.80
2024-02-19T01:48:13.048Z,1.80
2024-02-19T01:50:42.188Z,1.70
2024-02-19T01:53:11.826Z,1.80
2024-02-19T01:55:41.156Z,1.80
2024-02-19T01:58:10.247Z,1.80
2024-02-19T02:00:46.169Z,1.80
2024-02-19T02:03:19.172Z,1.80
2024-02-19T02:05:49.181Z,1.80
2024-02-19T02:08:17.449Z,1.80
2024-02-19T02:10:45.309Z,1.90
2024-02-19T02:13:13.094Z,2.00
2024-02-19T02:15:41.084Z,1.90
2024-02-19T02:18:08.812Z,1.90
2024-02-19T02:20:36.739Z,1.90
2024-02-19T02:23:05.150Z,2.00
2024-02-19T02:25:34.927Z,2.00
2024-02-19T02:28:02.479Z,2.00
2024-02-19T02:30:30.657Z,2.00
2024-02-19T02:32:58.629Z,2.00
2024-02-19T02:35:26.731Z,2.00
2024-02-19T02:37:54.206Z,2.10
2024-02-19T02:40:22.058Z,2.00
2024-02-19T02:42:49.623Z,2.10
2024-02-19T02:45:17.433Z,2.10
2024-02-19T02:47:44.812Z,2.20
2024-02-19T02:50:12.498Z,2.20
2024-02-19T02:52:40.423Z,2.30
2024-02-19T02:55:08.630Z,2.30
2024-02-19T02:57:36.166Z,2.40
2024-02-19T03:00:05.614Z,2.40
2024-02-19T03:02:34.837Z,2.40
2024-02-19T03:05:02.623Z,2.40
2024-02-19T03:07:30.350Z,2.40
2024-02-19T03:09:58.095Z,2.50
2024-02-19T03:12:25.569Z,2.50
2024-02-19T03:14:53.687Z,2.50
2024-02-19T03:17:21.446Z,2.50
2024-02-19T03:19:49.447Z,2.50
2024-02-19T03:22:16.972Z,2.50
2024-02-19T03:24:45.176Z,2.50
2024-02-19T03:27:13.756Z,2.50
2024-02-19T03:29:41.558Z,2.50
2024-02-19T03:32:09.051Z,2.50
2024-02-19T03:34:37.050Z,2.60
2024-02-19T03:37:04.497Z,2.60
2024-02-19T03:39:32.424Z,2.70
2024-02-19T03:42:01.685Z,2.60
2024-02-19T03:44:29.404Z,2.60
2024-02-19T03:46:58.211Z,2.60
2024-02-19T03:49:27.118Z,2.70
2024-02-19T03:51:54.553Z,2.70
2024-02-19T03:54:22.234Z,2.70
2024-02-19T03:56:51.255Z,2.70
2024-02-19T03:59:19.115Z,2.70
2024-02-19T04:01:46.599Z,2.70
2024-02-19T04:04:17.911Z,2.70
2024-02-19T04:06:45.660Z,2.70
2024-02-19T04:09:13.417Z,2.70
2024-02-19T04:11:41.955Z,2.70
2024-02-19T04:14:09.630Z,2.70
2024-02-19T04:16:37.165Z,2.60
2024-02-19T04:19:05.043Z,2.60
2024-02-19T04:21:32.504Z,2.60
2024-02-19T04:24:00.173Z,2.60
2024-02-19T04:26:27.575Z,2.60
2024-02-19T04:28:57.460Z,2.70
2024-02-19T04:31:24.994Z,2.70
2024-02-19T04:33:52.879Z,2.70
2024-02-19T04:36:20.317Z,2.60
2024-02-19T04:38:47.972Z,2.60
2024-02-19T04:41:15.708Z,2.60
2024-02-19T04:43:43.357Z,2.60
2024-02-19T04:46:10.943Z,2.60
2024-02-19T04:48:38.739Z,2.60
2024-02-19T04:51:06.876Z,2.60
2024-02-19T04:53:34.591Z,2.70
2024-02-19T04:56:02.604Z,2.70
2024-02-19T04:58:30.235Z,2.70
2024-02-19T05:00:57.879Z,2.70
2024-02-19T05:03:26.685Z,2.80
2024-02-19T05:05:54.460Z,2.80
2024-02-19T05:08:22.130Z,2.80
2024-02-19T05:10:50.637Z,2.90
2024-02-19T05:13:18.389Z,2.90
2024-02-19T05:15:45.824Z,2.90
2024-02-19T05:18:13.611Z,2.90
2024-02-19T05:20:42.513Z,3.00
2024-02-19T05:23:10.305Z,3.00
2024-02-19T05:25:38.681Z,3.10
2024-02-19T05:28:06.511Z,3.10
2024-02-19T05:30:34.727Z,3.10
2024-02-19T05:33:02.880Z,3.10
2024-02-19T05:35:30.355Z,3.10
2024-02-19T05:37:58.015Z,3.20
2024-02-19T05:40:25.427Z,3.20
2024-02-19T05:42:54.096Z,3.30
2024-02-19T05:45:22.007Z,3.30
2024-02-19T05:47:49.812Z,3.20
2024-02-19T05:50:18.395Z,3.30
2024-02-19T05:52:47.450Z,3.40
2024-02-19T05:55:15.470Z,3.50
2024-02-19T05:57:43.301Z,3.50
2024-02-19T06:00:15.266Z,3.60
2024-02-19T06:02:43.417Z,3.60
2024-02-19T06:05:14.943Z,3.60
2024-02-19T06:07:42.654Z,3.70
2024-02-19T06:10:10.632Z,3.70
2024-02-19T06:12:38.469Z,3.70
2024-02-19T06:15:06.277Z,3.80
2024-02-19T06:17:34.164Z,3.80
2024-02-19T06:20:03.214Z,3.90
2024-02-19T06:22:31.203Z,4.00
2024-02-19T06:24:59.332Z,4.00
2024-02-19T06:27:27.129Z,4.10
2024-02-19T06:29:54.538Z,4.10
2024-02-19T06:32:23.281Z,4.20
2024-02-19T06:34:50.996Z,4.30
2024-02-19T06:37:18.820Z,4.30
2024-02-19T06:39:46.402Z,4.40
2024-02-19T06:42:14.960Z,4.50
2024-02-19T06:44:42.282Z,4.50
2024-02-19T06:47:10.141Z,4.50
2024-02-19T06:49:37.647Z,4.60
2024-02-19T06:52:05.604Z,4.60
2024-02-19T06:54:35.125Z,4.60
2024-02-19T06:57:04.658Z,4.60
2024-02-19T06:59:32.256Z,4.70
2024-02-19T07:02:00.068Z,4.70
2024-02-19T07:04:27.576Z,4.70
2024-02-19T07:06:56.389Z,4.80
2024-02-19T07:09:23.733Z,4.90
2024-02-19T07:11:51.419Z,4.90
2024-02-19T07:14:18.914Z,4.90
2024-02-19T07:16:46.552Z,5.00
2024-02-19T07:19:15.117Z,5.10
2024-02-19T07:21:42.812Z,5.10
2024-02-19T07:24:10.144Z,5.10
2024-02-19T07:26:37.867Z,5.10
2024-02-19T07:29:06.030Z,5.20
2024-02-19T07:31:33.798Z,5.10
2024-02-19T07:34:01.387Z,5.10
2024-02-19T07:36:29.248Z,5.20
2024-02-19T07:38:56.680Z,5.40
2024-02-19T07:41:24.409Z,5.40
2024-02-19T07:43:52.386Z,5.40
2024-02-19T07:46:22.408Z,5.50
2024-02-19T07:48:50.206Z,5.50
2024-02-19T07:51:18.103Z,5.50
2024-02-19T07:53:45.585Z,5.70
2024-02-19T07:56:13.256Z,5.80
2024-02-19T07:58:40.647Z,5.80
2024-02-19T08:01:10.693Z,5.90
2024-02-19T08:03:38.191Z,6.00
2024-02-19T08:06:05.977Z,6.00
2024-02-19T08:08:34.089Z,6.10
2024-02-19T08:11:03.535Z,6.10
2024-02-19T08:13:31.093Z,6.10
2024-02-19T08:16:00.038Z,6.20
2024-02-19T08:18:27.624Z,6.40
2024-02-19T08:20:55.426Z,6.30
2024-02-19T08:23:22.879Z,6.30
2024-02-19T08:25:50.540Z,6.30
2024-02-19T08:28:18.084Z,6.30
2024-02-19T08:30:46.391Z,6.30
2024-02-19T08:33:14.757Z,6.30
2024-02-19T08:35:42.741Z,6.20
2024-02-19T08:38:12.848Z,6.20
2024-02-19T08:40:41.521Z,6.20
2024-02-19T08:43:12.378Z,6.30
2024-02-19T08:45:44.089Z,6.40
2024-02-19T08:48:11.764Z,6.50
2024-02-19T08:50:40.047Z,6.60
2024-02-19T08:53:07.399Z,6.50
2024-02-19T08:55:35.974Z,6.60
2024-02-19T08:58:03.560Z,6.50
2024-02-19T09:00:34.031Z,6.40
2024-02-19T09:03:01.781Z,6.30
2024-02-19T09:05:29.714Z,6.40
2024-02-19T09:07:57.969Z,6.30
2024-02-19T09:10:26.067Z,6.30
2024-02-19T09:12:53.619Z,6.40
2024-02-19T09:15:23.847Z,6.30
2024-02-19T09:17:51.449Z,6.30
2024-02-19T09:20:19.391Z,6.20
2024-02-19T09:22:46.790Z,6.10
2024-02-19T09:25:14.965Z,6.10
2024-02-19T09:27:42.416Z,6.00
2024-02-19T09:30:10.483Z,6.00
2024-02-19T09:32:38.310Z,6.00
2024-02-19T09:35:09.258Z,6.00
2024-02-19T09:37:38.967Z,6.10
2024-02-19T09:40:08.408Z,6.20
2024-02-19T09:42:36.888Z,6.30
2024-02-19T09:45:05.959Z,6.30
2024-02-19T09:47:35.223Z,6.40
2024-02-19T09:50:04.240Z,6.40
2024-02-19T09:52:32.020Z,6.50
2024-02-19T09:55:00.160Z,6.60
2024-02-19T09:57:29.593Z,6.70
2024-02-19T09:59:59.892Z,6.80
2024-02-19T10:02:27.498Z,6.80
2024-02-19T10:04:55.296Z,7.00
2024-02-19T10:07:22.993Z,7.10
2024-02-19T10:09:51.651Z,7.10
2024-02-19T10:12:20.737Z,7.10
2024-02-19T10:14:49.087Z,7.10
2024-02-19T10:17:25.140Z,7.10
2024-02-19T10:20:06.493Z,7.00
2024-02-19T10:22:34.699Z,7.10
2024-02-19T10:25:02.563Z,7.10
2024-02-19T10:27:37.416Z,7.00
2024-02-19T10:30:14.248Z,6.90
2024-02-19T10:32:47.533Z,7.00
2024-02-19T10:35:15.692Z,7.00
2024-02-19T10:37:43.138Z,7.00
2024-02-19T10:40:15.626Z,7.10
2024-02-19T10:42:43.292Z,7.10
2024-02-19T10:45:11.176Z,7.20
2024-02-19T10:47:39.868Z,7.10
2024-02-19T10:50:09.423Z,7.20
2024-02-19T10:52:41.146Z,7.30
2024-02-19T10:55:14.760Z,7.40
2024-02-19T10:57:55.776Z,7.40
2024-02-19T11:00:29.054Z,7.40
2024-02-19T11:03:07.520Z,7.50
2024-02-19T11:05:39.494Z,7.60
2024-02-19T11:08:29.571Z,7.80
2024-02-19T11:10:58.992Z,7.80
2024-02-19T11:13:28.050Z,7.80
2024-02-19T11:15:56.777Z,7.80
2024-02-19T11:18:24.519Z,7.70
2024-02-19T11:20:52.516Z,7.70
2024-02-19T11:23:21.931Z,7.70
2024-02-19T11:25:49.962Z,7.70
2024-02-19T11:28:17.601Z,7.70
2024-02-19T11:30:47.928Z,7.60
2024-02-19T11:33:15.531Z,7.70
2024-02-19T11:35:45.133Z,7.80
2024-02-19T11:38:12.804Z,7.80
2024-02-19T11:40:41.013Z,7.90
2024-02-19T11:43:10.246Z,7.90
2024-02-19T11:45:38.443Z,7.90
2024-02-19T11:48:06.639Z,7.90
2024-02-19T11:50:34.388Z,7.90
2024-02-19T11:53:04.488Z,8.00
2024-02-19T11:55:37.038Z,8.10
2024-02-19T11:58:07.217Z,8.10
2024-02-19T12:00:36.746Z,8.30
2024-02-19T12:03:05.009Z,8.50
2024-02-19T12:05:32.904Z,8.60
2024-02-19T12:08:00.687Z,8.70
2024-02-19T12:10:28.898Z,8.70
2024-02-19T12:12:56.659Z,8.70
2024-02-19T12:15:25.287Z,8.80
2024-02-19T12:17:54.723Z,8.80
2024-02-19T12:20:23.080Z,8.80
2024-02-19T12:22:50.617Z,8.80
2024-02-19T12:25:18.476Z,8.60
2024-02-19T12:27:46.157Z,8.60
2024-02-19T12:30:14.070Z,8.60
2024-02-19T12:32:42.010Z,8.60
2024-02-19T12:35:09.978Z,8.60
2024-02-19T12:37:37.693Z,8.60
2024-02-19T12:40:06.299Z,8.60
2024-02-19T12:42:34.372Z,8.80
2024-02-19T12:45:02.105Z,8.90
2024-02-19T12:47:29.617Z,8.90
2024-02-19T12:49:57.479Z,9.00
2024-02-19T12:52:28.163Z,9.20
2024-02-19T12:54:58.679Z,9.10
2024-02-19T12:57:28.053Z,9.10
2024-02-19T12:59:58.098Z,9.20
2024-02-19T13:02:25.500Z,9.30
2024-02-19T13:04:53.385Z,9.40
2024-02-19T13:07:21.255Z,9.50
2024-02-19T13:09:49.009Z,9.40
2024-02-19T13:12:16.521Z,9.40
2024-02-19T13:14:44.970Z,9.40
2024-02-19T13:17:22.700Z,9.10
2024-02-19T13:19:53.808Z,9.10
2024-02-19T13:22:21.573Z,9.00
2024-02-19T13:24:49.466Z,9.00
2024-02-19T13:27:16.899Z,8.80
2024-02-19T13:29:44.579Z,8.80
2024-02-19T13:32:12.751Z,8.60
2024-02-19T13:34:40.819Z,8.50
2024-02-19T13:37:09.417Z,8.50
2024-02-19T13:39:37.227Z,8.30
2024-02-19T13:42:05.494Z,8.30
2024-02-19T13:44:34.358Z,8.40
2024-02-19T13:47:01.866Z,8.20
2024-02-19T13:49:30.706Z,8.00
2024-02-19T13:51:58.824Z,7.90
2024-02-19T13:54:26.754Z,7.90
2024-02-19T13:56:54.768Z,7.80
2024-02-19T13:59:22.561Z,7.80
2024-02-19T14:01:50.264Z,7.80
2024-02-19T14:04:18.363Z,7.80
2024-02-19T14:06:46.372Z,7.80
2024-02-19T14:09:15.216Z,7.70
2024-02-19T14:11:45.421Z,7.70
2024-02-19T14:14:13.109Z,7.50
2024-02-19T14:16:40.675Z,7.40
2024-02-19T14:19:08.446Z,7.40
2024-02-19T14:21:36.671Z,7.30
2024-02-19T14:24:04.901Z,7.00
2024-02-19T14:26:32.570Z,6.80
2024-02-19T14:29:06.768Z,6.60
2024-02-19T14:31:34.574Z,6.60
2024-02-19T14:34:02.650Z,6.60
2024-02-19T14:36:30.639Z,6.50
2024-02-19T14:38:58.768Z,6.40
2024-02-19T14:41:26.246Z,6.40
2024-02-19T14:43:54.251Z,6.30
2024-02-19T14:46:21.773Z,6.30
2024-02-19T14:48:53.765Z,6.10
2024-02-19T14:51:23.550Z,6.00
2024-02-19T14:53:55.545Z,6.00
2024-02-19T14:56:23.137Z,5.90
2024-02-19T14:58:50.832Z,5.80
2024-02-19T15:01:18.415Z,5.90
2024-02-19T15:03:46.281Z,5.90
2024-02-19T15:06:13.812Z,6.00
2024-02-19T15:08:41.526Z,6.00
2024-02-19T15:11:09.043Z,6.00
2024-02-19T15:13:36.756Z,6.10
2024-02-19T15:16:04.363Z,6.10
2024-02-19T15:18:32.194Z,6.20
2024-02-19T15:20:59.859Z,6.20
2024-02-19T15:23:27.697Z,6.30
2024-02-19T15:25:55.318Z,6.20
2024-02-19T15:28:23.146Z,6.30
2024-02-19T15:30:50.644Z,6.30
2024-02-19T15:33:18.508Z,6.30
2024-02-19T15:35:48.747Z,6.30
2024-02-19T15:38:18.731Z,6.30
2024-02-19T15:40:46.224Z,6.40
2024-02-19T15:43:14.117Z,6.40
2024-02-19T15:45:44.841Z,6.40
2024-02-19T15:48:14.251Z,6.40
2024-02-19T15:50:43.040Z,6.40
2024-02-19T15:53:24.808Z,6.30
2024-02-19T15:55:59.190Z,6.40
2024-02-19T15:58:27.525Z,6.40
2024-02-19T16:00:55.797Z,6.40
2024-02-19T16:03:23.669Z,6.40
2024-02-19T16:05:59.709Z,6.40
2024-02-19T16:08:33.305Z,6.40
2024-02-19T16:11:04.327Z,6.40
2024-02-19T16:13:32.987Z,6.40
2024-02-19T16:16:00.745Z,6.40
2024-02-19T16:18:28.740Z,6.40
2024-02-19T16:20:56.492Z,6.40
2024-02-19T16:23:24.693Z,6.40
2024-02-19T16:25:52.954Z,6.40
2024-02-19T16:28:20.969Z,6.40
2024-02-19T16:30:49.088Z,6.30
2024-02-19T16:33:19.026Z,6.30
2024-02-19T16:35:46.824Z,6.30
2024-02-19T16:38:15.891Z,6.40
2024-02-19T16:40:53.982Z,6.40
2024-02-19T16:43:21.931Z,6.40
2024-02-19T16:45:49.472Z,6.30
2024-02-19T16:48:18.071Z,6.10
2024-02-19T16:50:45.626Z,5.90
2024-02-19T16:53:15.899Z,5.80
2024-02-19T16:55:45.346Z,5.70
2024-02-19T16:58:16.684Z,5.70
2024-02-19T17:00:48.344Z,5.70
2024-02-19T17:03:17.243Z,5.60
2024-02-19T17:05:44.954Z,5.30
2024-02-19T17:08:12.896Z,5.30
2024-02-19T17:10:41.089Z,5.20
2024-02-19T17:13:08.959Z,5.20
2024-02-19T17:15:36.440Z,5.20
2024-02-19T17:18:06.224Z,5.10
2024-02-19T17:20:33.737Z,5.10
2024-02-19T17:23:01.824Z,5.10
2024-02-19T17:25:34.287Z,5.10
2024-02-19T17:28:02.466Z,5.10
2024-02-19T17:30:29.863Z,5.10
2024-02-19T17:32:57.847Z,5.10
2024-02-19T17:35:26.955Z,5.00
2024-02-19T17:37:54.819Z,4.90
2024-02-19T17:40:23.690Z,4.90
2024-02-19T17:42:52.200Z,4.90
2024-02-19T17:45:19.745Z,4.90
2024-02-19T17:47:51.840Z,4.90
2024-02-19T17:50:20.713Z,4.90
2024-02-19T17:52:49.304Z,4.90
2024-02-19T17:55:17.684Z,4.90
2024-02-19T17:57:46.154Z,4.80
2024-02-19T18:00:14.298Z,4.80
2024-02-19T18:02:41.991Z,4.90
2024-02-19T18:05:09.670Z,4.90
2024-02-19T18:07:38.813Z,4.90
2024-02-19T18:10:11.175Z,4.90
2024-02-19T18:12:40.666Z,4.90
2024-02-19T18:15:08.577Z,4.90
2024-02-19T18:17:37.106Z,4.90
2024-02-19T18:20:07.986Z,4.90
2024-02-19T18:22:37.329Z,4.80
2024-02-19T18:25:05.566Z,4.90
2024-02-19T18:27:37.221Z,4.90
2024-02-19T18:30:10.777Z,4.90
2024-02-19T18:32:41.781Z,4.90
2024-02-19T18:35:10.569Z,4.90
2024-02-19T18:37:41.100Z,4.90
2024-02-19T18:40:09.968Z,4.90
2024-02-19T18:42:39.724Z,4.90
2024-02-19T18:45:07.739Z,5.00
2024-02-19T18:47:35.682Z,5.00
2024-02-19T18:50:03.368Z,5.10
2024-02-19T18:52:33.016Z,5.10
2024-02-19T18:55:00.439Z,5.00
2024-02-19T18:57:31.866Z,5.00
2024-02-19T18:59:59.245Z,5.00
2024-02-19T19:02:30.149Z,4.90
2024-02-19T19:04:59.397Z,4.90
2024-02-19T19:07:27.161Z,5.00
2024-02-19T19:09:56.207Z,4.90
2024-02-19T19:12:25.768Z,5.00
2024-02-19T19:14:53.527Z,5.00
2024-02-19T19:17:21.593Z,5.00
2024-02-19T19:19:49.290Z,5.00
2024-02-19T19:22:20.994Z,5.00
2024-02-19T19:24:49.463Z,5.10
2024-02-19T19:27:17.705Z,5.10
2024-02-19T19:29:45.146Z,5.10
2024-02-19T19:32:19.826Z,5.10
2024-02-19T19:34:47.308Z,5.10
2024-02-19T19:37:15.578Z,5.10
2024-02-19T19:39:43.111Z,5.10
2024-02-19T19:42:10.827Z,5.10
2024-02-19T19:44:41.559Z,5.00
2024-02-19T19:47:09.285Z,5.00
2024-02-19T19:49:37.041Z,5.00
2024-02-19T19:52:05.391Z,5.10
2024-02-19T19:54:32.791Z,5.10
2024-02-19T19:57:00.425Z,5.10
2024-02-19T19:59:29.463Z,5.10
2024-02-19T20:01:57.489Z,5.10
2024-02-19T20:04:30.006Z,5.10
2024-02-19T20:06:57.997Z,5.10
2024-02-19T20:09:26.774Z,5.20
2024-02-19T20:11:54.724Z,5.20
2024-02-19T20:14:22.524Z,5.20
2024-02-19T20:16:50.164Z,5.20
2024-02-19T20:19:17.728Z,5.20
2024-02-19T20:21:45.510Z,5.20
2024-02-19T20:24:13.056Z,5.30
2024-02-19T20:26:42.039Z,5.30
2024-02-19T20:29:10.385Z,5.20
2024-02-19T20:31:38.133Z,5.30
2024-02-19T20:34:05.768Z,5.30
2024-02-19T20:36:35.970Z,5.30
2024-02-19T20:39:06.044Z,5.30
2024-02-19T20:41:33.791Z,5.30
2024-02-19T20:44:01.730Z,5.30
2024-02-19T20:46:34.817Z,5.40
2024-02-19T20:49:03.103Z,5.40
2024-02-19T20:51:31.209Z,5.40
2024-02-19T20:53:58.757Z,5.40
2024-02-19T20:56:26.532Z,5.40
2024-02-19T20:58:54.744Z,5.40
2024-02-19T21:01:22.468Z,5.40
2024-02-19T21:03:51.031Z,5.40
2024-02-19T21:06:18.801Z,5.40
2024-02-19T21:08:46.255Z,5.40
2024-02-19T21:11:16.327Z,5.40
2024-02-19T21:13:43.962Z,5.30
2024-02-19T21:16:11.910Z,5.20
2024-02-19T21:18:47.122Z,5.10
2024-02-19T21:21:26.664Z,5.10
2024-02-19T21:24:01.296Z,5.10
2024-02-19T21:26:30.785Z,5.00
2024-02-19T21:28:58.176Z,5.00
2024-02-19T21:31:26.132Z,5.00
2024-02-19T21:33:53.838Z,5.00
2024-02-19T21:36:21.983Z,5.00
2024-02-19T21:38:50.693Z,5.00
2024-02-19T21:41:18.657Z,5.10
2024-02-19T21:43:46.121Z,5.00
2024-02-19T21:46:13.904Z,5.00
2024-02-19T21:48:42.095Z,5.00
2024-02-19T21:51:09.980Z,5.10
2024-02-19T21:53:40.081Z,5.00
2024-02-19T21:56:07.993Z,5.10
2024-02-19T21:58:35.432Z,5.10
2024-02-19T22:01:03.275Z,5.20
2024-02-19T22:03:32.200Z,5.30
2024-02-19T22:06:00.084Z,5.30
2024-02-19T22:08:27.915Z,5.30
2024-02-19T22:10:55.770Z,5.20
2024-02-19T22:13:23.311Z,5.30
2024-02-19T22:15:55.278Z,5.30
2024-02-19T22:18:25.361Z,5.40
2024-02-19T22:20:53.655Z,5.40
2024-02-19T22:23:21.184Z,5.40
2024-02-19T22:25:49.602Z,5.50
2024-02-19T22:28:17.161Z,5.40
2024-02-19T22:30:45.054Z,5.40
2024-02-19T22:33:12.672Z,5.50
2024-02-19T22:35:40.515Z,5.50
2024-02-19T22:38:08.030Z,5.60
2024-02-19T22:40:36.026Z,5.60
2024-02-19T22:43:11.027Z,5.60
2024-02-19T22:45:39.316Z,5.60
2024-02-19T22:48:10.217Z,5.60
2024-02-19T22:50:39.411Z,5.60
2024-02-19T22:53:08.145Z,5.60
2024-02-19T22:55:36.375Z,5.70
2024-02-19T22:58:04.268Z,5.70
2024-02-19T23:00:40.455Z,5.70
2024-02-19T23:03:08.390Z,5.70
2024-02-19T23:05:36.253Z,5.80
2024-02-19T23:08:04.044Z,5.80
2024-02-19T23:11:27.926Z,5.80
2024-02-19T23:14:32.976Z,5.90
2024-02-19T23:17:00.782Z,5.80
2024-02-19T23:19:29.566Z,5.90
2024-02-19T23:21:57.339Z,5.90
2024-02-19T23:24:25.440Z,6.00
2024-02-19T23:26:53.346Z,6.00
2024-02-19T23:29:21.064Z,5.90
2024-02-19T23:31:49.063Z,5.90
2024-02-19T23:34:16.635Z,5.90
2024-02-19T23:36:44.856Z,6.00
2024-02-19T23:39:12.235Z,6.00
2024-02-19T23:41:39.940Z,6.00
2024-02-19T23:44:07.330Z,6.00
2024-02-19T23:46:35.693Z,6.10
2024-02-19T23:49:03.976Z,6.10
2024-02-19T23:51:31.723Z,6.10
2024-02-19T23:53:59.725Z,6.10
2024-02-19T23:56:27.381Z,6.10
2024-02-19T23:58:54.743Z,6.10
